Time;durP1;ratioP1;P1;durP2;ratioP2;P2;SDS_P1;SDS_P2;PMS_P1;PMS_P2;Temp;Humidity;BMP_temperature;BMP_pressure;BME280_temperature;BME280_humidity;BME280_pressure;Samples;Min_cycle;Max_cycle;Signal;HPM_P1;HPM_P2
2022/10/20 00:01:00;;;;;;;376.30;350.10;;;11.10;99.90;;;11.22;100.00;100798.50;5093181;28;20201;-79
2022/10/20 00:03:49;;;;;;;371.00;346.67;;;11.10;99.90;;;11.21;100.00;100791.44;5094000;28;20208;-79
2022/10/20 00:06:37;;;;;;;358.10;334.15;;;11.10;99.90;;;11.13;100.00;100787.81;5093005;28;20205;-79
2022/10/20 00:09:25;;;;;;;361.10;337.65;;;11.00;99.90;;;11.20;100.00;100783.47;5092979;28;20244;-79
2022/10/20 00:12:13;;;;;;;350.70;328.50;;;11.00;99.90;;;11.15;100.00;100778.13;5092950;28;20198;-79
2022/10/20 00:15:02;;;;;;;346.38;324.02;;;11.00;99.90;;;11.07;100.00;100773.63;5093314;28;20540;-79
2022/10/20 00:17:50;;;;;;;351.05;327.85;;;11.00;99.90;;;11.00;100.00;100777.94;5078324;28;20217;-79
2022/10/20 00:20:39;;;;;;;351.48;327.88;;;10.90;99.90;;;11.05;100.00;100785.94;5094102;28;20197;-79
2022/10/20 00:23:27;;;;;;;352.95;329.77;;;10.90;99.90;;;10.94;100.00;100776.97;5095755;28;20204;-79
2022/10/20 00:26:25;;;;;;;349.95;326.75;;;10.80;99.90;;;10.92;100.00;100784.91;5096873;28;20197;-80
2022/10/20 00:29:14;;;;;;;350.15;326.83;;;10.80;99.90;;;10.91;100.00;100775.19;5094617;28;20233;-79
2022/10/20 00:32:02;;;;;;;349.33;325.13;;;10.80;99.90;;;10.88;100.00;100773.38;5094796;28;20204;-79
2022/10/20 00:34:50;;;;;;;353.92;329.60;;;10.80;99.90;;;10.93;100.00;100773.44;5094283;28;20201;-79
2022/10/20 00:37:38;;;;;;;352.77;328.58;;;10.80;99.90;;;10.98;100.00;100770.84;5094333;28;20201;-78
2022/10/20 00:40:26;;;;;;;346.50;323.02;;;10.90;99.90;;;10.93;100.00;100764.63;5069956;28;20198;-79
2022/10/20 00:43:16;;;;;;;345.85;322.05;;;10.80;99.90;;;10.99;100.00;100773.53;5072342;28;20198;-79
2022/10/20 00:46:04;;;;;;;346.52;323.17;;;10.90;99.90;;;10.86;100.00;100764.53;5073348;28;20209;-79
2022/10/20 00:48:59;;;;;;;342.90;319.65;;;10.80;99.90;;;10.94;100.00;100771.69;5071547;28;20256;-79
2022/10/20 00:51:48;;;;;;;340.00;316.98;;;10.80;99.90;;;10.80;100.00;100751.22;5045412;28;20201;-79
2022/10/20 00:54:36;;;;;;;338.40;316.13;;;10.70;99.90;;;10.86;100.00;100759.25;5057571;28;20658;-79
2022/10/20 00:57:25;;;;;;;345.35;320.42;;;10.70;99.90;;;10.82;100.00;100770.66;5058046;28;20202;-79
2022/10/20 01:00:14;;;;;;;337.65;314.63;;;10.70;99.90;;;10.83;100.00;100763.59;5055423;28;20198;-79
2022/10/20 01:03:05;;;;;;;346.77;322.83;;;10.70;99.90;;;10.72;100.00;100755.53;5072717;28;20216;-78
2022/10/20 01:05:53;;;;;;;339.90;316.35;;;10.60;99.90;;;10.74;100.00;100755.56;5044142;28;20198;-79
2022/10/20 01:08:41;;;;;;;343.55;319.98;;;10.60;99.90;;;10.65;100.00;100744.84;5065701;28;20222;-79
2022/10/20 01:12:27;;;;;;;333.67;310.48;;;10.60;99.90;;;10.63;100.00;100744.81;5073466;28;20198;-79
2022/10/20 01:15:47;;;;;;;327.13;303.63;;;11.00;99.90;;;10.65;100.00;100751.03;5050064;28;20194;-79
2022/10/20 01:19:12;;;;;;;328.20;304.45;;;10.50;99.90;;;10.58;100.00;100739.47;5057366;28;20237;-78
2022/10/20 01:22:15;;;;;;;330.25;305.73;;;10.50;99.90;;;10.62;100.00;100739.50;5055701;28;20609;-79
2022/10/20 01:25:16;;;;;;;333.80;309.25;;;10.50;99.90;;;10.49;100.00;100726.13;5059294;28;20208;-79
2022/10/20 01:28:49;;;;;;;333.25;308.40;;;10.40;99.90;;;10.50;100.00;100730.53;5057467;28;20226;-78
2022/10/20 01:31:42;;;;;;;328.80;303.95;;;10.40;99.90;;;10.61;100.00;100748.31;5047537;28;20186;-79
2022/10/20 01:34:35;;;;;;;329.83;305.27;;;10.50;99.90;;;10.55;100.00;100734.13;5044405;28;20213;-79
2022/10/20 01:37:53;;;;;;;343.50;316.00;;;11.30;99.90;;;10.59;100.00;100737.72;5055000;28;20194;-79
2022/10/20 01:41:08;;;;;;;323.75;299.83;;;10.40;99.90;;;10.48;100.00;100727.00;5059777;28;20214;-79
2022/10/20 01:43:56;;;;;;;327.33;302.48;;;10.40;99.90;;;10.49;100.00;100722.59;5074337;27;20209;-78
2022/10/20 01:46:46;;;;;;;329.10;303.70;;;10.40;99.90;;;10.58;100.00;100730.66;5057139;28;20208;-78
2022/10/20 01:49:34;;;;;;;329.77;304.83;;;10.50;99.90;;;10.54;100.00;100727.06;5057621;28;20233;-78
2022/10/20 01:52:23;;;;;;;330.58;305.15;;;10.40;99.90;;;10.44;100.00;100711.94;5059343;28;20591;-79
2022/10/20 01:55:15;;;;;;;337.40;311.58;;;10.40;99.90;;;10.50;100.00;100719.06;5041583;28;20204;-79
2022/10/20 01:58:37;;;;;;;337.77;311.70;;;10.40;99.90;;;10.42;100.00;100711.03;5052115;28;20229;-78
2022/10/20 02:02:05;;;;;;;325.98;300.60;;;10.30;99.90;;;10.37;100.00;100709.16;5070167;28;20206;-78
2022/10/20 02:05:27;;;;;;;317.83;292.67;;;10.30;99.90;;;10.45;100.00;100719.00;5050188;28;20189;-78
2022/10/20 02:08:19;;;;;;;318.05;292.83;;;10.30;99.90;;;10.31;100.00;100703.78;5070814;28;20221;-78
2022/10/20 02:11:36;;;;;;;323.77;298.27;;;10.30;99.90;;;10.32;100.00;100690.59;5058606;28;20221;-79
2022/10/20 02:14:25;;;;;;;322.63;297.00;;;10.20;99.90;;;10.35;100.00;100702.97;5057370;28;20213;-79
2022/10/20 02:17:15;;;;;;;322.05;297.20;;;10.20;99.90;;;10.36;100.00;100704.75;5051000;28;20233;-78
2022/10/20 02:20:07;;;;;;;325.73;300.73;;;10.20;99.90;;;10.27;100.00;100694.94;5052140;28;20198;-79
2022/10/20 02:23:02;;;;;;;328.42;303.38;;;10.20;99.90;;;10.20;100.00;100677.22;5058125;28;20189;-78
2022/10/20 02:25:52;;;;;;;325.65;299.98;;;10.10;99.90;;;10.21;100.00;100681.63;5057193;28;20224;-78
2022/10/20 02:28:47;;;;;;;325.52;300.38;;;10.10;99.90;;;10.24;100.00;100692.25;5058559;28;20226;-79
2022/10/20 02:31:35;;;;;;;326.67;301.13;;;10.10;99.90;;;10.10;100.00;100681.44;5074094;28;20197;-78
2022/10/20 02:34:27;;;;;;;330.20;303.83;;;10.00;99.90;;;10.12;100.00;100687.63;5059215;28;20197;-78
2022/10/20 02:37:15;;;;;;;323.90;298.10;;;10.10;99.90;;;10.18;100.00;100703.56;5072621;28;20208;-79
2022/10/20 02:40:04;;;;;;;321.17;296.05;;;10.00;99.90;;;10.13;100.00;100699.09;5072631;28;20209;-79
2022/10/20 02:42:52;;;;;;;316.42;290.75;;;8.80;99.90;;;10.06;100.00;100689.28;5054993;28;20205;-79
2022/10/20 02:45:40;;;;;;;319.83;293.75;;;10.00;99.90;;;10.11;100.00;100687.59;5071375;28;20190;-78
2022/10/20 02:48:28;;;;;;;326.95;300.40;;;10.00;99.90;;;10.13;100.00;100696.44;5070330;28;20253;-79
2022/10/20 02:51:17;;;;;;;320.17;293.85;;;10.00;99.90;;;10.16;100.00;100691.22;5070659;28;20229;-79
2022/10/20 02:54:05;;;;;;;321.10;295.17;;;10.10;99.90;;;10.15;100.00;100694.72;5054334;28;20212;-79
2022/10/20 02:56:54;;;;;;;329.23;302.00;;;10.00;99.90;;;10.10;100.00;100692.00;5072192;28;20201;-79
2022/10/20 02:59:42;;;;;;;319.13;293.08;;;10.00;99.90;;;10.14;100.00;100708.78;5058541;28;20225;-79
2022/10/20 03:02:31;;;;;;;318.67;291.77;;;10.00;99.90;;;10.03;100.00;100699.81;5058854;28;20205;-79
2022/10/20 03:05:19;;;;;;;320.90;293.38;;;10.00;99.90;;;9.99;100.00;100692.72;5060583;28;20209;-79
2022/10/20 03:08:07;;;;;;;317.05;289.00;;;9.90;99.90;;;9.96;100.00;100690.91;5074980;28;20225;-79
2022/10/20 03:10:55;;;;;;;320.38;290.85;;;;;;;10.01;100.00;100690.97;5076151;28;20229;-79
2022/10/20 03:13:44;;;;;;;321.73;290.05;;;9.90;99.90;;;10.03;100.00;100689.25;5076190;28;20194;-79
2022/10/20 03:16:32;;;;;;;322.70;290.80;;;9.90;99.90;;;10.08;100.00;100692.84;5075580;28;20202;-79
2022/10/20 03:19:20;;;;;;;319.38;287.65;;;;;;;10.02;100.00;100675.16;5059924;28;20225;-79
2022/10/20 03:22:08;;;;;;;319.92;289.35;;;9.90;99.90;;;10.02;100.00;100676.91;5055240;28;20210;-79
2022/10/20 03:24:56;;;;;;;322.17;292.38;;;9.90;99.90;;;9.93;100.00;100667.09;5071504;28;20198;-79
2022/10/20 03:27:44;;;;;;;321.20;291.15;;;9.80;99.90;;;9.97;100.00;100673.31;5072555;28;20212;-79
2022/10/20 03:30:33;;;;;;;318.33;292.27;;;9.90;99.90;;;9.91;100.00;100679.38;5044704;28;20224;-79
2022/10/20 03:33:21;;;;;;;303.80;280.50;;;9.80;99.90;;;9.93;100.00;100677.66;5073158;28;20205;-79
2022/10/20 03:36:10;;;;;;;296.80;274.70;;;9.80;99.90;;;10.01;100.00;100677.75;5072807;28;20202;-79
2022/10/20 03:38:58;;;;;;;303.08;280.05;;;9.90;99.90;;;9.96;100.00;100672.41;5072495;28;20226;-79
2022/10/20 03:41:46;;;;;;;297.23;275.55;;;9.90;99.90;;;10.00;100.00;100676.88;5073822;28;20194;-79
2022/10/20 03:44:34;;;;;;;289.83;268.40;;;9.90;99.90;;;10.00;100.00;100670.72;5074386;28;20209;-79
2022/10/20 03:47:22;;;;;;;305.27;281.48;;;9.90;99.90;;;9.97;100.00;100662.72;5074159;28;20186;-79
2022/10/20 03:50:10;;;;;;;300.50;277.95;;;9.90;99.90;;;9.97;100.00;100674.19;5073601;28;20237;-79
2022/10/20 03:52:58;;;;;;;295.52;273.50;;;9.90;99.90;;;10.03;100.00;100673.41;5074530;28;20190;-79
2022/10/20 03:55:47;;;;;;;286.10;264.80;;;9.90;99.90;;;10.01;100.00;100676.00;5073195;28;20205;-79
2022/10/20 03:58:35;;;;;;;294.35;272.85;;;9.90;99.90;;;10.00;100.00;100676.00;5074331;28;20206;-79
2022/10/20 04:01:30;;;;;;;296.13;274.30;;;9.90;99.90;;;10.01;100.00;100675.13;5074367;28;20205;-79
2022/10/20 04:04:18;;;;;;;292.27;270.45;;;9.90;99.90;;;9.91;100.00;100661.78;5045872;28;20194;-79
2022/10/20 04:07:07;;;;;;;295.58;273.30;;;9.90;99.90;;;9.93;100.00;100664.44;5058873;28;20201;-79
2022/10/20 04:09:55;;;;;;;292.10;270.17;;;9.80;99.90;;;10.02;100.00;100661.06;5072022;28;20197;-79
2022/10/20 04:12:43;;;;;;;289.55;267.60;;;9.90;99.90;;;10.02;100.00;100654.00;5073509;28;20217;-79
2022/10/20 04:15:31;;;;;;;298.67;275.75;;;9.90;99.90;;;9.97;100.00;100636.31;5074644;28;20213;-79
2022/10/20 04:18:20;;;;;;;296.92;274.63;;;9.90;99.90;;;10.04;100.00;100644.34;5060472;28;20218;-79
2022/10/20 04:21:08;;;;;;;301.17;277.77;;;10.00;99.90;;;10.03;100.00;100645.22;5058304;28;20202;-79
2022/10/20 04:23:56;;;;;;;296.77;273.02;;;10.00;99.90;;;10.06;100.00;100652.31;5073854;28;20202;-79
2022/10/20 04:26:44;;;;;;;294.63;270.60;;;10.00;99.90;;;10.02;100.00;100646.09;5073338;28;20198;-79
2022/10/20 04:29:33;;;;;;;298.08;273.67;;;9.90;99.90;;;10.04;100.00;100651.38;5059391;28;20213;-79
2022/10/20 04:32:21;;;;;;;308.60;284.20;;;10.00;99.90;;;9.99;100.00;100638.13;5075022;28;20194;-79
2022/10/20 04:35:09;;;;;;;297.33;273.67;;;9.90;99.90;;;10.02;100.00;100646.09;5074874;28;20209;-79
2022/10/20 04:37:57;;;;;;;311.42;286.27;;;9.90;99.90;;;9.90;100.00;100635.34;5074405;28;20221;-79
2022/10/20 04:40:54;;;;;;;292.70;269.77;;;9.90;99.90;;;9.87;100.00;100630.91;5073861;28;20198;-79
2022/10/20 04:43:51;;;;;;;303.02;279.60;;;9.80;99.90;;;9.90;100.00;100636.22;5074235;28;20669;-79
2022/10/20 04:46:39;;;;;;;305.50;281.50;;;9.80;99.90;;;9.86;100.00;100623.84;5074642;28;20205;-79
2022/10/20 04:49:27;;;;;;;303.85;279.95;;;9.80;99.90;;;9.78;100.00;100608.75;5057780;28;20248;-79
2022/10/20 04:52:16;;;;;;;308.17;284.00;;;9.70;99.90;;;9.75;100.00;100620.16;5073393;28;20237;-79
2022/10/20 04:55:04;;;;;;;298.60;274.80;;;9.70;99.90;;;9.73;100.00;100618.34;5074353;28;20202;-79
2022/10/20 04:57:52;;;;;;;308.08;283.55;;;9.70;99.90;;;9.74;100.00;100626.28;5059024;28;20214;-79
2022/10/20 05:00:41;;;;;;;302.52;279.33;;;9.70;99.90;;;9.83;100.00;100641.38;5074192;28;20198;-79
2022/10/20 05:03:29;;;;;;;300.55;276.70;;;9.80;99.90;;;9.74;100.00;100628.94;5072905;28;20202;-79
2022/10/20 05:06:21;;;;;;;305.67;281.35;;;9.70;99.90;;;9.82;100.00;100632.59;5077245;28;20209;-79
2022/10/20 05:09:09;;;;;;;298.20;274.75;;;9.70;99.90;;;9.73;100.00;100606.03;5072638;28;20217;-79
2022/10/20 05:11:58;;;;;;;304.73;280.52;;;9.70;99.90;;;9.72;100.00;100612.19;5058234;28;20222;-79
2022/10/20 05:14:47;;;;;;;295.95;272.60;;;9.70;99.90;;;9.65;100.00;100609.41;5074225;28;20206;-79
2022/10/20 05:17:35;;;;;;;299.27;275.63;;;9.60;99.90;;;9.68;100.00;100612.09;5075474;28;20209;-79
2022/10/20 05:20:23;;;;;;;295.42;273.20;;;9.60;99.90;;;9.75;100.00;100620.16;5060418;28;20209;-79
2022/10/20 05:23:11;;;;;;;307.33;283.50;;;9.70;99.90;;;9.68;100.00;100601.53;5060877;28;20199;-79
2022/10/20 05:26:04;;;;;;;303.63;279.85;;;9.60;99.90;;;9.77;100.00;100615.78;5075804;28;20206;-80
2022/10/20 05:28:53;;;;;;;290.75;267.27;;;9.70;99.90;;;9.74;100.00;100609.56;5075273;28;20226;-80
2022/10/20 05:31:42;;;;;;;308.10;283.80;;;9.70;99.90;;;9.74;100.00;100601.63;5076143;28;20233;-79
2022/10/20 05:34:31;;;;;;;306.55;282.70;;;9.70;99.90;;;9.64;100.00;100592.69;5061721;28;20193;-80
2022/10/20 05:37:19;;;;;;;303.55;279.63;;;9.60;99.90;;;9.67;100.00;100598.03;5075917;28;20206;-80
2022/10/20 05:40:12;;;;;;;297.80;274.52;;;9.60;99.90;;;9.69;100.00;100592.75;5062950;28;20194;-79
2022/10/20 05:43:00;;;;;;;296.67;273.10;;;9.60;99.90;;;9.66;100.00;100579.50;5074563;28;20209;-79
2022/10/20 05:45:53;;;;;;;303.33;278.45;;;9.60;99.90;;;9.64;100.00;100582.13;5061445;28;20202;-79
2022/10/20 05:48:41;;;;;;;294.63;269.95;;;9.50;99.90;;;9.54;100.00;100574.94;5059299;28;20232;-79
2022/10/20 05:51:34;;;;;;;296.77;272.38;;;9.50;99.90;;;9.63;100.00;100578.59;5060766;28;20237;-79
2022/10/20 05:54:22;;;;;;;289.75;266.05;;;9.50;99.90;;;9.66;100.00;100598.88;5075241;28;20221;-79
2022/10/20 05:57:11;;;;;;;299.00;274.30;;;;;;;9.53;100.00;100584.59;5074442;28;20198;-79
2022/10/20 05:59:59;;;;;;;295.55;270.45;;;9.50;99.90;;;9.53;100.00;100595.16;5076597;28;20202;-79
2022/10/20 06:02:47;;;;;;;295.55;270.42;;;9.50;99.90;;;9.53;100.00;100600.44;5071952;28;20209;-79
2022/10/20 06:05:35;;;;;;;304.10;277.95;;;9.40;99.90;;;9.52;100.00;100597.78;5072087;28;20212;-79
2022/10/20 06:08:23;;;;;;;300.88;274.77;;;9.40;99.90;;;9.58;100.00;100603.16;5072578;28;20230;-79
2022/10/20 06:11:13;;;;;;;301.23;275.05;;;9.40;99.90;;;9.55;100.00;100609.28;5071974;28;20232;-79
2022/10/20 06:14:02;;;;;;;300.67;274.48;;;9.40;99.90;;;9.51;100.00;100620.66;5072134;28;20512;-79
2022/10/20 06:16:54;;;;;;;297.42;272.33;;;9.40;99.90;;;9.39;100.00;100615.16;5071423;28;20209;-79
2022/10/20 06:19:42;;;;;;;296.05;270.40;;;9.40;99.90;;;9.54;100.00;100633.00;5070248;28;20678;-79
2022/10/20 06:22:30;;;;;;;292.08;267.05;;;9.40;99.90;;;9.59;100.00;100641.91;5071317;28;20574;-79
2022/10/20 06:25:18;;;;;;;297.85;272.55;;;9.50;99.90;;;9.56;100.00;100652.41;5071311;28;20627;-79
2022/10/20 06:28:06;;;;;;;288.27;263.85;;;9.50;99.90;;;9.61;100.00;100653.38;5072433;28;20240;-79
2022/10/20 06:30:54;;;;;;;288.10;264.35;;;9.50;99.90;;;9.69;100.00;100670.22;5072363;28;20225;-79
2022/10/20 06:33:43;;;;;;;299.50;274.65;;;9.60;99.90;;;9.71;100.00;100675.53;5072940;28;20213;-79
2022/10/20 06:36:36;;;;;;;293.30;268.92;;;8.50;99.90;;;9.77;100.00;100671.25;5071087;28;20201;-80
2022/10/20 06:39:24;;;;;;;298.88;273.73;;;9.60;99.90;;;9.82;100.00;100672.19;5072175;28;20214;-79
2022/10/20 06:42:12;;;;;;;296.92;271.95;;;9.70;99.90;;;9.87;100.00;100677.56;5071779;28;20198;-79
2022/10/20 06:45:07;;;;;;;294.60;270.15;;;9.80;99.90;;;9.98;100.00;100683.00;5072616;28;20201;-79
2022/10/20 06:47:55;;;;;;;296.00;270.52;;;9.90;99.90;;;10.08;100.00;100692.84;5056650;28;20218;-80
2022/10/20 06:50:43;;;;;;;298.42;272.95;;;10.00;99.90;;;10.13;100.00;100688.53;5057553;28;20198;-80
2022/10/20 06:53:34;;;;;;;295.80;270.90;;;10.00;99.90;;;10.24;100.00;100679.03;5073181;28;20201;-80
2022/10/20 06:56:25;;;;;;;298.05;273.08;;;10.20;99.90;;;10.37;100.00;100682.72;5071334;28;20213;-80
2022/10/20 06:59:14;;;;;;;296.30;271.13;;;10.20;99.90;;;10.43;100.00;100677.56;5070985;28;20213;-80
2022/10/20 07:02:02;;;;;;;303.00;277.50;;;10.30;99.90;;;10.47;100.00;100679.38;5072044;28;20198;-79
2022/10/20 07:04:50;;;;;;;307.38;281.42;;;10.30;99.90;;;10.52;100.00;100689.16;5056700;28;20209;-79
2022/10/20 07:07:38;;;;;;;320.58;294.27;;;10.40;99.90;;;10.58;100.00;100698.91;5046408;28;20241;-79
2022/10/20 07:10:26;;;;;;;316.92;292.00;;;10.50;99.90;;;10.64;100.00;100713.97;5060745;28;20205;-79
2022/10/20 07:13:14;;;;;;;322.88;296.13;;;10.50;99.90;;;10.66;100.00;100712.22;5075225;28;20225;-79
2022/10/20 07:16:04;;;;;;;317.00;290.88;;;10.50;99.90;;;10.71;100.00;100705.25;5076237;28;20198;-79
2022/10/20 07:18:53;;;;;;;328.88;302.20;;;10.60;99.90;;;10.77;100.00;100703.56;5074469;28;20218;-79
2022/10/20 07:21:41;;;;;;;333.95;307.05;;;10.70;99.90;;;10.84;100.00;100723.06;5076041;28;20198;-80
2022/10/20 07:24:32;;;;;;;331.27;304.70;;;10.70;99.90;;;10.94;100.00;100732.00;5076147;28;20677;-79
2022/10/20 07:27:20;;;;;;;332.08;305.60;;;10.80;99.90;;;11.02;100.00;100725.91;5076022;28;20562;-79
2022/10/20 07:30:09;;;;;;;336.02;310.73;;;10.90;99.90;;;10.99;100.00;100717.94;5080595;28;20198;-80
2022/10/20 07:32:57;;;;;;;342.90;316.42;;;10.90;99.90;;;11.10;100.00;100715.41;5069700;28;20233;-79
2022/10/20 07:35:46;;;;;;;351.00;324.20;;;11.00;99.90;;;11.13;100.00;100711.06;5071014;28;20216;-79
2022/10/20 07:38:34;;;;;;;341.83;316.15;;;11.00;99.90;;;11.22;100.00;100708.50;5070874;28;20233;-79
2022/10/20 07:41:25;;;;;;;348.27;322.15;;;11.10;99.90;;;11.31;100.00;100699.75;5070042;28;20190;-79
2022/10/20 07:44:14;;;;;;;351.50;327.55;;;11.20;99.90;;;11.35;100.00;100696.28;5074504;28;20201;-80
2022/10/20 07:47:02;;;;;;;343.05;320.60;;;11.20;99.90;;;11.49;100.00;100697.31;5074747;28;20212;-79
2022/10/20 07:49:50;;;;;;;341.13;319.50;;;11.30;99.90;;;11.57;100.00;100715.91;5074135;28;20230;-79
2022/10/20 07:52:39;;;;;;;352.55;329.48;;;11.40;99.90;;;11.67;100.00;100717.78;5073816;28;20597;-79
2022/10/20 07:55:27;;;;;;;350.70;328.35;;;11.50;99.90;;;11.74;100.00;100721.41;5060122;28;20190;-79
2022/10/20 07:58:30;;;;;;;354.63;331.83;;;11.60;99.90;;;11.87;100.00;100730.38;5072458;28;20209;-79
2022/10/20 08:01:19;;;;;;;358.77;335.70;;;11.70;99.90;;;11.87;100.00;100709.16;5059474;28;20202;-79
2022/10/20 08:04:07;;;;;;;365.75;342.73;;;11.70;99.90;;;11.80;100.00;100714.41;5073445;28;20202;-80
2022/10/20 08:06:56;;;;;;;370.25;346.95;;;11.70;99.90;;;11.85;100.00;100714.47;5073205;28;20198;-80
2022/10/20 08:09:46;;;;;;;380.85;356.90;;;11.70;99.90;;;11.77;100.00;100710.81;5074193;28;20218;-80
2022/10/20 08:12:34;;;;;;;379.73;356.38;;;11.70;99.90;;;11.83;100.00;100710.91;5075873;28;20233;-79
2022/10/20 08:15:22;;;;;;;372.33;348.52;;;11.70;99.90;;;11.80;100.00;100687.91;5077100;28;20190;-79
2022/10/20 08:18:12;;;;;;;381.33;357.70;;;11.70;99.90;;;11.92;100.00;100683.59;5076811;28;20221;-79
2022/10/20 08:21:26;;;;;;;389.20;364.90;;;11.80;99.90;;;11.99;100.00;100688.94;5077268;28;20202;-79
2022/10/20 08:24:14;;;;;;;382.20;358.17;;;11.80;99.90;;;12.08;100.00;100683.72;5076401;28;20186;-79
2022/10/20 08:27:02;;;;;;;386.45;362.48;;;12.00;99.90;;;12.18;100.00;100685.53;5076193;28;20217;-79
2022/10/20 08:29:51;;;;;;;394.10;370.25;;;12.00;99.90;;;12.31;100.00;100682.97;5076389;28;20206;-79
2022/10/20 08:32:53;;;;;;;398.65;373.88;;;12.10;99.90;;;12.42;100.00;100700.72;5075922;28;20233;-79
2022/10/20 08:35:41;;;;;;;409.55;384.92;;;12.20;99.90;;;12.54;100.00;100701.66;5077377;28;20190;-79
2022/10/20 08:38:29;;;;;;;418.88;393.55;;;12.40;99.90;;;12.50;100.00;100696.34;5062152;28;20229;-79
2022/10/20 08:41:42;;;;;;;417.13;392.35;;;12.40;99.90;;;12.59;100.00;100698.16;5076115;28;20197;-79
2022/10/20 08:44:54;;;;;;;419.77;394.20;;;12.40;99.90;;;12.66;100.00;100702.63;5064531;28;20193;-79
2022/10/20 08:47:44;;;;;;;413.55;388.02;;;12.60;99.90;;;12.74;100.00;100707.94;5063599;28;20194;-79
2022/10/20 08:50:33;;;;;;;424.33;399.48;;;12.60;99.90;;;12.82;100.00;100716.84;5078292;28;20198;-79
2022/10/20 08:53:24;;;;;;;432.45;407.80;;;12.70;99.90;;;12.80;100.00;100708.88;5064885;28;20221;-79
2022/10/20 08:56:13;;;;;;;422.30;398.58;;;12.70;99.90;;;12.89;100.00;100723.94;5060749;28;20198;-79
2022/10/20 08:59:02;;;;;;;438.33;413.15;;;12.70;99.90;;;12.92;100.00;100713.34;5063006;28;20228;-79
2022/10/20 09:01:51;;;;;;;443.38;417.90;;;12.80;99.90;;;13.04;100.00;100721.38;5076032;28;20205;-79
2022/10/20 09:04:48;;;;;;;446.10;421.08;;;12.80;99.90;;;13.11;100.00;100717.88;5060529;28;20221;-79
2022/10/20 09:07:38;;;;;;;440.00;414.52;;;13.00;99.90;;;13.21;100.00;100721.47;5060686;28;20205;-80
2022/10/20 09:10:34;;;;;;;445.73;420.50;;;13.00;99.90;;;13.34;100.00;100730.34;5060084;28;20202;-79
2022/10/20 09:13:29;;;;;;;470.73;443.35;;;13.10;99.90;;;13.44;100.00;100729.50;5045843;28;20213;-79
2022/10/20 09:16:29;;;;;;;481.92;453.95;;;13.30;99.90;;;13.63;100.00;100733.06;5059910;28;20205;-79
2022/10/20 09:19:35;;;;;;;481.10;453.08;;;13.40;99.90;;;13.71;100.00;100726.88;5062461;28;20221;-79
2022/10/20 09:22:26;;;;;;;490.50;462.00;;;13.50;99.90;;;13.81;100.00;100725.09;5057967;28;20198;-79
2022/10/20 09:25:26;;;;;;;505.38;476.20;;;13.60;99.90;;;13.82;100.00;100716.25;5061765;28;20202;-79
2022/10/20 09:28:27;;;;;;;499.95;470.92;;;13.70;99.90;;;14.02;100.00;100727.75;5075817;28;20218;-80
2022/10/20 09:31:39;;;;;;;512.70;482.90;;;13.80;99.90;;;14.06;100.00;100702.06;5075381;28;20198;-79
2022/10/20 09:34:33;;;;;;;512.00;482.15;;;13.90;99.90;;;14.22;100.00;100718.88;5074464;28;20716;-79
2022/10/20 09:37:21;;;;;;;531.60;500.80;;;14.00;99.90;;;14.20;100.00;100716.22;5074065;28;20206;-79
2022/10/20 09:40:17;;;;;;;540.55;510.13;;;14.10;99.90;;;14.19;100.00;100697.59;5059582;28;20214;-79
2022/10/20 09:43:14;;;;;;;542.75;511.05;;;14.10;99.90;;;14.31;100.00;100708.25;5060770;28;20198;-79
2022/10/20 09:46:08;;;;;;;559.58;527.15;;;14.10;99.90;;;14.27;100.00;100695.81;5059585;28;20209;-79
2022/10/20 09:48:57;;;;;;;563.88;530.15;;;14.20;99.90;;;14.41;100.00;100702.91;5060801;28;20698;-79
2022/10/20 09:51:46;;;;;;;572.50;539.08;;;14.20;99.90;;;14.47;100.00;100683.41;5075011;28;20194;-79
2022/10/20 09:54:35;;;;;;;574.80;541.28;;;14.30;99.90;;;14.66;100.00;100690.44;5060816;28;20233;-79
2022/10/20 09:57:23;;;;;;;570.08;537.45;;;14.40;99.90;;;14.93;100.00;100708.09;5061201;28;20194;-79
2022/10/20 10:00:29;;;;;;;573.35;542.65;;;14.70;99.90;;;14.85;100.00;100677.06;5075615;28;20206;-79
2022/10/20 10:03:28;;;;;;;574.83;543.53;;;14.70;99.90;;;14.83;100.00;100679.75;5061220;28;20205;-79
2022/10/20 10:06:43;;;;;;;579.67;547.97;;;14.70;99.90;;;14.75;100.00;100659.38;5073965;28;20202;-78
2022/10/20 10:09:35;;;;;;;609.45;575.53;;;14.70;99.90;;;14.77;100.00;100654.91;5073176;28;20220;-79
2022/10/20 10:12:26;;;;;;;617.13;582.35;;;14.70;99.90;;;14.95;100.00;100650.38;5074550;28;20209;-79
2022/10/20 10:15:29;;;;;;;625.45;589.83;;;15.00;99.90;;;15.26;100.00;100671.50;5061033;28;20198;-79
2022/10/20 10:18:21;;;;;;;610.05;577.72;;;15.00;99.90;;;15.28;100.00;100657.28;5053245;28;20244;-79
2022/10/20 10:21:14;;;;;;;609.20;576.92;;;15.10;99.90;;;15.39;100.00;100665.22;5061412;28;20206;-78
2022/10/20 10:24:03;;;;;;;619.63;587.67;;;15.20;99.90;;;15.48;100.00;100664.25;5060035;28;20201;-79
2022/10/20 10:26:54;;;;;;;622.95;590.70;;;15.30;99.90;;;15.27;100.00;100623.53;5062842;28;20202;-79
2022/10/20 10:29:42;;;;;;;642.15;608.92;;;15.30;99.90;;;15.44;100.00;100641.19;5073566;28;20714;-79
2022/10/20 10:32:30;;;;;;;616.83;585.30;;;15.30;99.90;;;15.48;100.00;100645.59;5059606;28;20216;-79
2022/10/20 10:35:24;;;;;;;620.92;589.65;;;15.30;99.90;;;15.47;100.00;100636.72;5074411;28;20577;-79
2022/10/20 10:38:13;;;;;;;631.65;599.55;;;15.30;99.90;;;15.61;100.00;100645.56;5058597;28;20225;-79
2022/10/20 10:41:56;;;;;;;642.33;610.25;;;15.50;99.90;;;15.44;100.00;100617.19;5069418;28;20205;-79
2022/10/20 10:45:04;;;;;;;646.67;613.47;;;15.40;99.90;;;15.25;100.00;100601.34;5066294;28;20198;-79
2022/10/20 10:48:07;;;;;;;658.83;624.33;;;15.20;99.90;;;15.18;100.00;100594.31;5072082;28;20221;-79
2022/10/20 10:51:09;;;;;;;662.03;627.65;;;15.10;99.90;;;15.17;100.00;100607.63;5059499;28;20206;-79
2022/10/20 10:54:22;;;;;;;636.55;604.55;;;15.10;99.90;;;15.14;100.00;100623.63;5072656;28;20230;-79
2022/10/20 10:57:25;;;;;;;626.13;595.20;;;15.10;99.90;;;15.15;100.00;100630.75;5075892;28;20194;-79
2022/10/20 11:00:35;;;;;;;652.70;619.55;;;15.10;99.90;;;15.09;100.00;100617.47;5056912;28;20653;-79
2022/10/20 11:03:35;;;;;;;618.63;588.08;;;15.10;99.90;;;15.12;100.00;100622.75;5053184;28;20701;-79
2022/10/20 11:06:43;;;;;;;613.00;583.17;;;15.00;99.90;;;15.03;100.00;100613.06;5070246;28;20548;-79
2022/10/20 11:09:43;;;;;;;621.95;591.55;;;15.00;99.90;;;15.01;100.00;100593.53;5069714;28;20224;-79
2022/10/20 11:12:57;;;;;;;608.17;578.58;;;15.00;99.90;;;15.14;100.00;100608.53;5056280;28;20206;-79
2022/10/20 11:16:19;;;;;;;580.17;552.50;;;15.00;99.90;;;15.13;100.00;100604.09;5065105;28;20201;-79
2022/10/20 11:19:35;;;;;;;569.58;542.22;;;15.00;99.90;;;15.15;100.00;100593.44;5070656;28;20214;-79
2022/10/20 11:22:51;;;;;;;569.80;542.03;;;15.00;99.90;;;15.20;100.00;100599.63;5070962;28;20202;-79
2022/10/20 11:25:58;;;;;;;556.20;530.45;;;15.00;99.90;;;15.08;100.00;100581.94;5074140;28;20198;-79
2022/10/20 11:28:50;;;;;;;539.72;513.90;;;15.00;99.90;;;14.96;100.00;100568.72;5056696;28;20228;-79